createdAt,value
2018-09-21T00:02:27.775Z,99912.92
2018-09-21T00:04:56.312Z,99913.09
2018-09-21T00:07:24.730Z,99906.53
2018-09-21T00:09:53.131Z,99899.73
2018-09-21T00:12:21.582Z,99901.78
2018-09-21T00:14:49.974Z,99899.19
2018-09-21T00:17:18.350Z,99894.75
2018-09-21T00:19:46.743Z,99896.08
2018-09-21T00:22:15.131Z,99893.09
2018-09-21T00:24:43.780Z,99891.06
2018-09-21T00:27:12.896Z,99885.67
2018-09-21T00:29:41.317Z,99879.74
2018-09-21T00:32:10.088Z,99883.58
2018-09-21T00:34:38.494Z,99877.02
2018-09-21T00:37:07.920Z,99875.23
2018-09-21T00:39:36.511Z,99872.20
2018-09-21T00:42:05.400Z,99866.08
2018-09-21T00:44:33.792Z,99863.48
2018-09-21T00:47:02.260Z,99858.77
2018-09-21T00:49:30.793Z,99855.52
2018-09-21T00:51:59.217Z,99856.65
2018-09-21T00:54:27.608Z,99849.49
2018-09-21T00:56:56.044Z,99853.85
2018-09-21T00:59:24.479Z,99852.09
2018-09-21T01:01:53.627Z,99850.89
2018-09-21T01:04:22.210Z,99842.16
2018-09-21T01:06:51.428Z,99844.77
2018-09-21T01:09:19.851Z,99847.42
2018-09-21T01:11:48.284Z,99834.02
2018-09-21T01:14:16.663Z,99833.99
2018-09-21T01:16:45.099Z,99831.02
2018-09-21T01:19:13.766Z,99829.30
2018-09-21T01:21:42.210Z,99830.95
2018-09-21T01:24:10.668Z,99823.98
2018-09-21T01:26:39.716Z,99831.09
2018-09-21T01:29:08.114Z,99825.88
2018-09-21T01:31:36.575Z,99828.42
2018-09-21T01:34:04.904Z,99823.96
2018-09-21T01:36:33.533Z,99824.08
2018-09-21T01:39:02.123Z,99818.50
2018-09-21T01:41:30.564Z,99822.58
2018-09-21T01:43:58.951Z,99815.19
2018-09-21T01:46:27.610Z,99811.98
2018-09-21T01:48:57.100Z,99806.55
2018-09-21T01:51:25.518Z,99809.91
2018-09-21T01:53:54.074Z,99798.38
2018-09-21T01:56:22.548Z,99793.69
2018-09-21T01:58:51.587Z,99796.03
2018-09-21T02:01:20.038Z,99789.59
2018-09-21T02:03:48.461Z,99788.07
2018-09-21T02:06:16.882Z,99774.19
2018-09-21T02:08:45.614Z,99782.37
2018-09-21T02:11:14.532Z,99779.39
2018-09-21T02:13:44.682Z,99776.03
2018-09-21T02:16:13.876Z,99774.64
2018-09-21T02:18:42.364Z,99759.08
2018-09-21T02:21:10.732Z,99760.69
2018-09-21T02:23:39.247Z,99759.55
2018-09-21T02:26:07.799Z,99760.59
2018-09-21T02:28:36.287Z,99753.47
2018-09-21T02:31:04.644Z,99746.30
2018-09-21T02:33:33.068Z,99745.03
2018-09-21T02:36:01.572Z,99743.17
2018-09-21T02:38:30.306Z,99738.67
2018-09-21T02:40:58.870Z,99741.20
2018-09-21T02:43:28.327Z,99739.33
2018-09-21T02:45:56.992Z,99730.41
2018-09-21T02:48:25.416Z,99728.78
2018-09-21T02:50:53.866Z,99723.09
2018-09-21T02:53:23.298Z,99714.09
2018-09-21T02:55:51.754Z,99706.44
2018-09-21T02:58:20.274Z,99714.48
2018-09-21T03:00:48.748Z,99700.13
2018-09-21T03:03:17.670Z,99703.74
2018-09-21T03:05:46.330Z,99699.47
2018-09-21T03:08:14.833Z,99690.16
2018-09-21T03:10:43.289Z,99686.50
2018-09-21T03:13:11.812Z,99683.77
2018-09-21T03:15:40.219Z,99677.58
2018-09-21T03:18:08.723Z,99672.63
2018-09-21T03:20:37.295Z,99674.30
2018-09-21T03:23:05.782Z,99671.93
2018-09-21T03:25:34.309Z,99669.41
2018-09-21T03:28:03.158Z,99663.11
2018-09-21T03:30:32.781Z,99660.35
2018-09-21T03:33:01.365Z,99655.86
2018-09-21T03:35:30.153Z,99648.16
2018-09-21T03:37:58.987Z,99644.74
2018-09-21T03:40:27.560Z,99642.72
2018-09-21T03:42:56.042Z,99629.25
2018-09-21T03:45:24.543Z,99632.00
2018-09-21T03:47:53.162Z,99614.48
2018-09-21T03:50:21.779Z,99611.27
2018-09-21T03:52:50.351Z,99609.56
2018-09-21T03:55:18.888Z,99605.80
2018-09-21T03:57:47.795Z,99609.69
2018-09-21T04:00:16.545Z,99608.02
2018-09-21T04:02:44.931Z,99610.44
2018-09-21T04:05:13.421Z,99607.02
2018-09-21T04:07:42.333Z,99592.36
2018-09-21T04:10:11.399Z,99595.25
2018-09-21T04:12:40.050Z,99581.69
2018-09-21T04:15:09.123Z,99582.89
2018-09-21T04:17:38.103Z,99568.70
2018-09-21T04:20:06.884Z,99562.78
2018-09-21T04:22:37.920Z,99564.42
2018-09-21T04:25:07.798Z,99559.81
2018-09-21T04:27:37.671Z,99557.22
2018-09-21T04:30:06.274Z,99556.20
2018-09-21T04:32:34.708Z,99552.64
2018-09-21T04:35:03.296Z,99546.77
2018-09-21T04:37:31.915Z,99539.11
2018-09-21T04:40:00.353Z,99548.66
2018-09-21T04:42:29.085Z,99540.70
2018-09-21T04:44:57.695Z,99544.27
2018-09-21T04:47:26.325Z,99533.58
2018-09-21T04:49:54.960Z,99531.81
2018-09-21T04:52:23.693Z,99530.65
2018-09-21T04:54:52.177Z,99529.30
2018-09-21T04:57:20.749Z,99514.72
2018-09-21T04:59:49.199Z,99511.98
2018-09-21T05:02:18.324Z,99504.77
2018-09-21T05:04:46.983Z,99504.05
2018-09-21T05:07:16.586Z,99508.90
2018-09-21T05:09:45.153Z,99503.03
2018-09-21T05:12:16.043Z,99503.23
2018-09-21T05:14:45.032Z,99491.77
2018-09-21T05:17:14.121Z,99493.80
2018-09-21T05:19:43.384Z,99489.41
2018-09-21T05:22:12.504Z,99492.27
2018-09-21T05:24:41.130Z,99488.25
2018-09-21T05:27:09.828Z,99483.20
2018-09-21T05:29:38.688Z,99483.20
2018-09-21T05:32:07.909Z,99479.92
2018-09-21T05:34:36.572Z,99468.36
2018-09-21T05:37:05.140Z,99460.59
2018-09-21T05:39:33.602Z,99458.56
2018-09-21T05:42:02.131Z,99453.45
2018-09-21T05:44:30.617Z,99442.64
2018-09-21T05:46:59.256Z,99451.87
2018-09-21T05:49:27.670Z,99447.84
2018-09-21T05:51:56.194Z,99447.03
2018-09-21T05:54:24.783Z,99436.98
2018-09-21T05:56:53.307Z,99437.67
2018-09-21T05:59:21.772Z,99430.20
2018-09-21T06:01:50.233Z,99432.69
2018-09-21T06:04:19.310Z,99423.91
2018-09-21T06:06:48.039Z,99419.30
2018-09-21T06:09:16.497Z,99421.30
2018-09-21T06:11:45.007Z,99418.92
2018-09-21T06:14:13.573Z,99428.36
2018-09-21T06:16:42.135Z,99416.27
2018-09-21T06:19:10.769Z,99417.89
2018-09-21T06:21:39.251Z,99416.15
2018-09-21T06:24:08.096Z,99420.71
2018-09-21T06:26:36.578Z,99416.26
2018-09-21T06:29:05.059Z,99407.62
2018-09-21T06:31:33.420Z,99417.39
2018-09-21T06:34:02.009Z,99399.17
2018-09-21T06:36:30.519Z,99392.50
2018-09-21T06:38:59.460Z,99396.44
2018-09-21T06:41:27.985Z,99398.98
2018-09-21T06:43:56.525Z,99391.20
2018-09-21T06:46:24.919Z,99388.69
2018-09-21T06:48:53.358Z,99396.36
2018-09-21T06:51:21.868Z,99390.20
2018-09-21T06:53:51.243Z,99390.61
2018-09-21T06:56:19.852Z,99390.11
2018-09-21T06:58:48.395Z,99384.26
2018-09-21T07:01:16.944Z,99389.10
2018-09-21T07:03:45.479Z,99381.30
2018-09-21T07:06:13.985Z,99369.93
2018-09-21T07:08:42.588Z,99373.20
2018-09-21T07:11:11.166Z,99375.88
2018-09-21T07:13:39.606Z,99367.86
2018-09-21T07:16:08.216Z,99365.11
2018-09-21T07:18:36.720Z,99365.53
2018-09-21T07:21:05.280Z,99365.84
2018-09-21T07:23:33.892Z,99367.98
2018-09-21T07:26:02.374Z,99357.16
2018-09-21T07:28:31.849Z,99362.84
2018-09-21T07:31:00.501Z,99352.27
2018-09-21T07:33:28.998Z,99350.99
2018-09-21T07:35:57.493Z,99352.34
2018-09-21T07:38:26.111Z,99348.44
2018-09-21T07:40:54.608Z,99338.23
2018-09-21T07:43:23.147Z,99342.98
2018-09-21T07:45:51.751Z,99328.94
2018-09-21T07:48:20.477Z,99340.45
2018-09-21T07:50:49.111Z,99344.53
2018-09-21T07:53:17.628Z,99349.13
2018-09-21T07:55:46.098Z,99355.28
2018-09-21T07:58:14.644Z,99337.09
2018-09-21T08:00:43.960Z,99351.48
2018-09-21T08:03:12.379Z,99361.20
2018-09-21T08:05:40.811Z,99361.27
2018-09-21T08:08:09.221Z,99351.45
2018-09-21T08:10:37.668Z,99352.06
2018-09-21T08:13:06.373Z,99355.28
2018-09-21T08:15:34.904Z,99356.66
2018-09-21T08:18:04.183Z,99345.41
2018-09-21T08:20:32.819Z,99345.19
2018-09-21T08:23:01.456Z,99350.93
2018-09-21T08:25:30.085Z,99332.17
2018-09-21T08:27:58.695Z,99330.75
2018-09-21T08:30:27.232Z,99342.17
2018-09-21T08:32:56.046Z,99334.29
2018-09-21T08:35:24.447Z,99338.67
2018-09-21T08:37:53.025Z,99325.96
2018-09-21T08:40:21.497Z,99334.67
2018-09-21T08:42:50.052Z,99322.49
2018-09-21T08:45:18.712Z,99326.84
2018-09-21T08:47:47.242Z,99331.05
2018-09-21T08:50:18.541Z,99321.48
2018-09-21T08:52:47.135Z,99326.23
2018-09-21T08:55:15.811Z,99329.41
2018-09-21T08:57:44.346Z,99313.50
2018-09-21T09:00:12.958Z,99313.78
2018-09-21T09:02:41.453Z,99310.34
2018-09-21T09:05:10.299Z,99313.68
2018-09-21T09:07:38.820Z,99307.37
2018-09-21T09:10:07.879Z,99313.92
2018-09-21T09:12:36.433Z,99314.87
2018-09-21T09:15:05.646Z,99312.74
2018-09-21T09:17:34.220Z,99308.59
2018-09-21T09:20:03.842Z,99314.16
2018-09-21T09:22:32.323Z,99296.77
2018-09-21T09:25:01.106Z,99294.05
2018-09-21T09:27:29.567Z,99293.27
2018-09-21T09:29:58.858Z,99277.45
2018-09-21T09:32:27.316Z,99290.41
2018-09-21T09:34:55.820Z,99285.39
2018-09-21T09:37:24.250Z,99274.94
2018-09-21T09:39:52.762Z,99277.14
2018-09-21T09:42:21.224Z,99277.84
2018-09-21T09:44:49.810Z,99275.97
2018-09-21T09:47:18.500Z,99271.69
2018-09-21T09:49:47.198Z,99276.53
2018-09-21T09:52:15.880Z,99277.88
2018-09-21T09:54:44.592Z,99282.31
2018-09-21T09:57:13.192Z,99277.78
2018-09-21T09:59:41.761Z,99287.66
2018-09-21T10:02:10.150Z,99274.72
2018-09-21T10:04:38.695Z,99270.97
2018-09-21T10:07:07.351Z,99267.19
2018-09-21T10:09:36.081Z,99268.61
2018-09-21T10:12:04.708Z,99264.30
2018-09-21T10:14:33.261Z,99267.91
2018-09-21T10:17:01.965Z,99254.16
2018-09-21T10:19:30.648Z,99240.42
2018-09-21T10:21:59.298Z,99250.62
2018-09-21T10:24:28.001Z,99245.38
2018-09-21T10:26:56.482Z,99243.30
2018-09-21T10:29:25.604Z,99234.78
2018-09-21T10:31:54.072Z,99237.17
2018-09-21T10:34:23.218Z,99225.64
2018-09-21T10:36:51.775Z,99236.06
2018-09-21T10:39:20.451Z,99227.16
2018-09-21T10:41:48.837Z,99216.37
2018-09-21T10:44:17.363Z,99209.66
2018-09-21T10:46:46.065Z,99209.84
2018-09-21T10:49:14.576Z,99194.70
2018-09-21T10:51:42.988Z,99196.47
2018-09-21T10:54:11.514Z,99202.48
2018-09-21T10:56:40.117Z,99200.36
2018-09-21T10:59:08.859Z,99210.11
2018-09-21T11:01:37.333Z,99206.23
2018-09-21T11:04:05.863Z,99197.72
2018-09-21T11:06:34.294Z,99198.09
2018-09-21T11:09:02.870Z,99191.54
2018-09-21T11:11:31.517Z,99198.17
2018-09-21T11:14:00.406Z,99193.92
2018-09-21T11:16:29.830Z,99181.78
2018-09-21T11:18:58.839Z,99185.39
2018-09-21T11:21:27.856Z,99168.50
2018-09-21T11:23:56.808Z,99160.45
2018-09-21T11:26:26.221Z,99168.96
2018-09-21T11:28:54.691Z,99185.84
2018-09-21T11:31:23.165Z,99182.08
2018-09-21T11:33:53.040Z,99178.27
2018-09-21T11:36:21.745Z,99189.83
2018-09-21T11:38:50.406Z,99194.35
2018-09-21T11:41:19.298Z,99184.25
2018-09-21T11:43:48.856Z,99184.77
2018-09-21T11:46:17.710Z,99185.72
2018-09-21T11:48:46.518Z,99173.16
2018-09-21T11:51:16.561Z,99189.95
2018-09-21T11:53:45.231Z,99194.67
2018-09-21T11:56:13.996Z,99250.53
2018-09-21T11:58:42.596Z,99269.34
2018-09-21T12:01:12.658Z,99294.53
2018-09-21T12:03:41.569Z,99299.40
2018-09-21T12:06:10.348Z,99313.88
2018-09-21T12:08:38.969Z,99353.37
2018-09-21T12:11:07.759Z,99386.83
2018-09-21T12:13:36.701Z,99394.00
2018-09-21T12:16:05.689Z,99432.02
2018-09-21T12:18:34.295Z,99455.86
2018-09-21T12:21:03.066Z,99466.34
2018-09-21T12:23:31.868Z,99484.14
2018-09-21T12:26:00.633Z,99478.56
2018-09-21T12:28:29.541Z,99496.52
2018-09-21T12:30:58.484Z,99511.67
2018-09-21T12:33:27.985Z,99499.95
2018-09-21T12:35:56.770Z,99508.19
2018-09-21T12:38:25.634Z,99522.30
2018-09-21T12:40:54.461Z,99534.38
2018-09-21T12:43:23.293Z,99524.86
2018-09-21T12:45:51.996Z,99521.44
2018-09-21T12:48:20.607Z,99510.66
2018-09-21T12:50:49.428Z,99503.05
2018-09-21T12:53:18.356Z,99519.20
2018-09-21T12:55:48.045Z,99537.88
2018-09-21T12:58:16.915Z,99537.87
2018-09-21T13:00:50.879Z,99545.48
2018-09-21T13:03:20.880Z,99542.88
2018-09-21T13:05:53.630Z,99552.16
2018-09-21T13:08:22.661Z,99548.27
2018-09-21T13:10:51.549Z,99533.39
2018-09-21T13:13:20.390Z,99523.57
2018-09-21T13:15:51.047Z,99528.77
2018-09-21T13:18:21.257Z,99537.62
2018-09-21T13:20:49.949Z,99532.63
2018-09-21T13:23:19.131Z,99551.56
2018-09-21T13:25:48.023Z,99547.05
2018-09-21T13:28:18.248Z,99546.19
2018-09-21T13:30:47.039Z,99555.86
2018-09-21T13:33:16.443Z,99555.97
2018-09-21T13:35:45.416Z,99574.00
2018-09-21T13:38:14.044Z,99570.05
2018-09-21T13:40:42.817Z,99574.89
2018-09-21T13:43:13.053Z,99583.61
2018-09-21T13:45:41.763Z,99584.11
2018-09-21T13:48:10.786Z,99578.73
2018-09-21T13:50:39.537Z,99582.49
2018-09-21T13:53:08.273Z,99567.22
2018-09-21T13:55:38.190Z,99565.46
2018-09-21T13:58:07.945Z,99545.97
2018-09-21T14:00:36.677Z,99538.23
2018-09-21T14:03:05.422Z,99547.94
2018-09-21T14:05:34.301Z,99545.75
2018-09-21T14:08:03.608Z,99543.10
2018-09-21T14:10:32.253Z,99538.02
2018-09-21T14:13:01.125Z,99541.52
2018-09-21T14:15:29.929Z,99565.33
2018-09-21T14:17:59.108Z,99592.70
2018-09-21T14:20:27.717Z,99618.94
2018-09-21T14:22:56.531Z,99616.61
2018-09-21T14:25:25.228Z,99618.45
2018-09-21T14:27:53.975Z,99642.84
2018-09-21T14:30:22.757Z,99659.19
2018-09-21T14:32:52.014Z,99642.95
2018-09-21T14:35:21.043Z,99646.88
2018-09-21T14:37:49.717Z,99660.92
2018-09-21T14:40:19.119Z,99636.36
2018-09-21T14:42:48.162Z,99650.55
2018-09-21T14:45:17.305Z,99634.31
2018-09-21T14:47:46.032Z,99627.70
2018-09-21T14:50:14.885Z,99606.03
2018-09-21T14:52:43.628Z,99589.89
2018-09-21T14:55:12.582Z,99603.59
2018-09-21T14:57:41.259Z,99598.91
2018-09-21T15:00:10.044Z,99618.38
2018-09-21T15:02:39.259Z,99642.97
2018-09-21T15:05:08.124Z,99632.66
2018-09-21T15:07:39.882Z,99634.91
2018-09-21T15:10:08.668Z,99663.20
2018-09-21T15:12:37.547Z,99669.05
2018-09-21T15:15:06.660Z,99646.14
2018-09-21T15:17:35.341Z,99648.25
2018-09-21T15:20:03.986Z,99642.41
2018-09-21T15:22:33.573Z,99633.55
2018-09-21T15:25:02.193Z,99651.30
2018-09-21T15:27:30.837Z,99644.80
2018-09-21T15:29:59.480Z,99623.40
2018-09-21T15:32:28.718Z,99631.56
2018-09-21T15:34:57.664Z,99635.83
2018-09-21T15:37:31.927Z,99650.67
2018-09-21T15:40:00.650Z,99659.03
2018-09-21T15:42:29.581Z,99658.03
2018-09-21T15:44:58.437Z,99654.62
2018-09-21T15:47:27.319Z,99670.41
2018-09-21T15:49:56.233Z,99670.34
2018-09-21T15:52:25.263Z,99659.09
2018-09-21T15:54:54.806Z,99653.58
2018-09-21T15:57:23.523Z,99671.86
2018-09-21T15:59:52.274Z,99660.62
2018-09-21T16:02:20.969Z,99669.05
2018-09-21T16:04:49.657Z,99665.25
2018-09-21T16:07:18.392Z,99667.45
2018-09-21T16:09:48.104Z,99651.81
2018-09-21T16:12:16.789Z,99641.80
2018-09-21T16:14:45.423Z,99646.60
2018-09-21T16:17:14.179Z,99642.20
2018-09-21T16:19:42.996Z,99636.05
2018-09-21T16:22:11.727Z,99633.70
2018-09-21T16:24:40.799Z,99634.99
2018-09-21T16:27:09.807Z,99635.29
2018-09-21T16:29:38.653Z,99633.31
2018-09-21T16:32:07.459Z,99637.05
2018-09-21T16:34:36.233Z,99636.11
2018-09-21T16:37:05.137Z,99671.86
2018-09-21T16:39:33.798Z,99669.58
2018-09-21T16:42:02.800Z,99677.78
2018-09-21T16:44:31.819Z,99688.00
2018-09-21T16:47:00.754Z,99689.81
2018-09-21T16:49:29.514Z,99698.64
2018-09-21T16:51:58.403Z,99708.33
2018-09-21T16:54:27.082Z,99706.58
2018-09-21T16:56:56.120Z,99712.66
2018-09-21T16:59:24.981Z,99710.22
2018-09-21T17:01:54.613Z,99712.27
2018-09-21T17:04:23.304Z,99716.70
2018-09-21T17:06:52.217Z,99724.03
2018-09-21T17:09:20.984Z,99723.34
2018-09-21T17:11:49.731Z,99721.30
2018-09-21T17:14:18.468Z,99722.16
2018-09-21T17:16:47.353Z,99731.55
2018-09-21T17:19:16.088Z,99731.61
2018-09-21T17:21:44.809Z,99734.34
2018-09-21T17:24:13.642Z,99739.50
2018-09-21T17:26:42.335Z,99748.45
2018-09-21T17:29:11.108Z,99754.71
2018-09-21T17:31:39.790Z,99760.23
2018-09-21T17:34:08.567Z,99763.49
2018-09-21T17:36:37.689Z,99768.32
2018-09-21T17:39:09.767Z,99778.60
2018-09-21T17:41:38.719Z,99776.03
2018-09-21T17:44:07.471Z,99787.44
2018-09-21T17:46:38.954Z,99795.84
2018-09-21T17:49:07.776Z,99808.84
2018-09-21T17:51:37.342Z,99803.69
2018-09-21T17:54:06.750Z,99818.01
2018-09-21T17:56:35.293Z,99827.09
2018-09-21T17:59:04.235Z,99827.45
2018-09-21T18:01:33.248Z,99830.64
2018-09-21T18:04:02.302Z,99843.07
2018-09-21T18:06:31.584Z,99853.83
2018-09-21T18:09:00.366Z,99859.13
2018-09-21T18:11:29.355Z,99864.91
2018-09-21T18:13:58.783Z,99872.27
2018-09-21T18:16:27.569Z,99877.23
2018-09-21T18:18:56.539Z,99885.73
2018-09-21T18:21:25.278Z,99890.25
2018-09-21T18:23:53.848Z,99894.63
2018-09-21T18:26:22.435Z,99898.61
2018-09-21T18:28:51.696Z,99901.84
2018-09-21T18:31:20.443Z,99910.02
2018-09-21T18:33:49.105Z,99920.88
2018-09-21T18:36:17.854Z,99928.15
2018-09-21T18:38:46.737Z,99929.58
2018-09-21T18:41:15.444Z,99935.80
2018-09-21T18:43:45.023Z,99949.95
2018-09-21T18:46:13.831Z,99959.56
2018-09-21T18:48:42.513Z,99966.05
2018-09-21T18:51:11.618Z,99968.92
2018-09-21T18:53:40.214Z,99972.00
2018-09-21T18:56:09.743Z,99978.30
2018-09-21T18:58:38.381Z,99981.14
2018-09-21T19:01:06.986Z,99982.98
2018-09-21T19:03:36.469Z,99979.49
2018-09-21T19:06:05.031Z,99985.92
2018-09-21T19:08:33.715Z,99996.05
2018-09-21T19:11:02.572Z,100003.53
2018-09-21T19:13:31.210Z,100000.53
2018-09-21T19:16:00.125Z,100011.25
2018-09-21T19:21:27.705Z,100013.55
2018-09-21T19:23:56.371Z,100009.87
2018-09-21T19:26:25.015Z,100013.35
2018-09-21T19:28:54.010Z,100017.70
2018-09-21T19:31:22.694Z,100021.84
2018-09-21T19:33:51.129Z,100025.33
2018-09-21T19:36:19.971Z,100021.70
2018-09-21T19:38:48.771Z,100017.28
2018-09-21T19:41:17.348Z,100017.79
2018-09-21T19:43:45.930Z,100020.00
2018-09-21T19:46:14.647Z,100025.59
2018-09-21T19:48:43.378Z,100020.64
2018-09-21T19:51:12.077Z,100015.77
2018-09-21T19:53:41.012Z,100026.10
2018-09-21T19:56:09.557Z,100031.55
2018-09-21T19:58:38.313Z,100029.11
2018-09-21T20:01:07.662Z,100034.00
2018-09-21T20:03:36.328Z,100039.06
2018-09-21T20:06:05.936Z,100039.06
2018-09-21T20:08:34.611Z,100045.45
2018-09-21T20:11:03.915Z,100037.91
2018-09-21T20:13:32.783Z,100045.66
2018-09-21T20:16:01.405Z,100051.21
2018-09-21T20:18:29.979Z,100052.55
2018-09-21T20:20:58.549Z,100050.05
2018-09-21T20:23:28.175Z,100062.40
2018-09-21T20:25:57.974Z,100059.98
2018-09-21T20:28:26.747Z,100065.68
2018-09-21T20:31:00.626Z,100070.78
2018-09-21T20:33:31.737Z,100082.06
2018-09-21T20:36:01.651Z,100081.69
2018-09-21T20:38:30.256Z,100094.30
2018-09-21T20:40:58.898Z,100092.76
2018-09-21T20:43:27.485Z,100099.06
2018-09-21T20:45:56.360Z,100100.40
2018-09-21T20:48:25.296Z,100105.54
2018-09-21T20:50:59.267Z,100108.98
2018-09-21T20:53:27.837Z,100112.17
2018-09-21T20:55:56.350Z,100117.61
2018-09-21T20:58:25.317Z,100119.72
2018-09-21T21:00:53.901Z,100124.41
2018-09-21T21:03:22.452Z,100126.44
2018-09-21T21:05:53.308Z,100130.84
2018-09-21T21:08:21.869Z,100143.20
2018-09-21T21:10:50.876Z,100150.13
2018-09-21T21:13:19.391Z,100156.63
2018-09-21T21:15:48.180Z,100160.98
2018-09-21T21:18:16.841Z,100159.85
2018-09-21T21:20:45.402Z,100170.38
2018-09-21T21:23:13.889Z,100175.75
2018-09-21T21:25:42.575Z,100176.86
2018-09-21T21:28:11.157Z,100173.84
2018-09-21T21:30:39.786Z,100171.46
2018-09-21T21:33:08.812Z,100160.47
2018-09-21T21:35:37.412Z,100174.13
2018-09-21T21:38:06.094Z,100172.58
2018-09-21T21:40:34.727Z,100180.14
2018-09-21T21:43:03.209Z,100188.44
2018-09-21T21:45:31.864Z,100188.80
2018-09-21T21:48:00.522Z,100186.89
2018-09-21T21:50:29.316Z,100189.25
2018-09-21T21:52:57.889Z,100190.05
2018-09-21T21:55:27.301Z,100195.88
2018-09-21T21:57:56.313Z,100205.16
2018-09-21T22:00:29.117Z,100203.67
2018-09-21T22:02:57.811Z,100200.62
2018-09-21T22:05:26.403Z,100202.53
2018-09-21T22:07:55.298Z,100196.67
2018-09-21T22:10:24.627Z,100202.38
2018-09-21T22:12:58.596Z,100217.59
2018-09-21T22:15:27.105Z,100212.02
2018-09-21T22:17:55.731Z,100206.43
2018-09-21T22:20:24.932Z,100204.06
2018-09-21T22:22:53.500Z,100200.80
2018-09-21T22:25:22.160Z,100194.22
2018-09-21T22:27:50.811Z,100214.03
2018-09-21T22:30:19.413Z,100215.00
2018-09-21T22:32:47.948Z,100225.64
2018-09-21T22:35:16.424Z,100223.17
2018-09-21T22:37:44.920Z,100224.74
2018-09-21T22:40:13.291Z,100217.11
2018-09-21T22:43:12.185Z,100223.84
2018-09-21T22:45:40.944Z,100221.89
2018-09-21T22:48:09.742Z,100225.09
2018-09-21T22:50:38.210Z,100220.92
2018-09-21T22:53:06.780Z,100222.27
2018-09-21T22:55:35.386Z,100230.80
2018-09-21T22:58:04.050Z,100237.28
2018-09-21T23:00:32.579Z,100233.44
2018-09-21T23:03:01.117Z,100221.25
2018-09-21T23:05:29.609Z,100234.94
2018-09-21T23:07:58.118Z,100231.67
2018-09-21T23:10:26.849Z,100237.41
2018-09-21T23:12:55.464Z,100231.66
2018-09-21T23:15:23.970Z,100231.36
2018-09-21T23:17:52.584Z,100230.88
2018-09-21T23:20:21.111Z,100240.00
2018-09-21T23:22:49.685Z,100232.34
2018-09-21T23:25:18.303Z,100231.95
2018-09-21T23:27:46.844Z,100235.06
2018-09-21T23:30:15.493Z,100231.62
2018-09-21T23:32:44.092Z,100235.86
2018-09-21T23:35:12.661Z,100239.73
2018-09-21T23:37:41.212Z,100243.55
2018-09-21T23:40:09.788Z,100240.84
2018-09-21T23:42:38.378Z,100234.22
2018-09-21T23:45:07.197Z,100236.30
2018-09-21T23:47:35.677Z,100236.39
2018-09-21T23:50:04.433Z,100238.52
2018-09-21T23:52:32.957Z,100244.92
2018-09-21T23:55:01.536Z,100244.74
2018-09-21T23:57:30.119Z,100241.70
2018-09-21T23:59:58.825Z,100258.57
